Rising Sun, Ohio
Current Conditions -  °F | °C
As of 9:53 AM on Friday 19 Dec 2014 (Local Time) from KTDZ Reporting Station
Overcast Overcast  
Wind Chill: 25°   Ceiling: 1000
Heat Index: 30°   Visibility: 7mi
Dew Point: 25°   Wind: 5mph
Humidity: 82%   Direction: 60°ENE
Pressure: 30.27"   Gusts: NA
Location:  41.2686°N, 83.4288°W
Report Text: KTDZ 191453Z AUTO 06004KT 7SM BKN010 OVC026 M01/M04 A3027 RMK AO2 CIG 009V014 SLP256 T10111039 50007 TSNO
Loading
Personal Weather Stations






























Interactive Weather Map New forecast layout! Learn more

10-Day Weather Forecast

Advertisements
Track Severe Weather on mobile